N683T MPPN-MPGU
Flight info
| Callsign | N683T |
|---|---|
| Flight time | 0h 19m |
| Altitude | 5500 |
| Route | NEPAX/N0183F040 DCT GEDAT DCT DEXAN |
| Aircraft | K100/L-SBDGRY/S |
Departure
| Time | 2026-04-12 19:44 |
|---|---|
| Airport | Guillermo Palm Jaén Airport (MPPN) |
Arrival
| Time | 2026-04-12 20:04 |
|---|---|
| Airport | Augusto Vergara Airport (MPGU) |
| Time | Latitude | Longitude | Altitude | Speed | Heading |
|---|---|---|---|---|---|
| 2026-04-12 19:13 | 8.50989 | -80.35979 | 243 ft | 0 kts | 89° |
| 2026-04-12 19:36 | 8.50989 | -80.35978 | 226 ft | 1 kts | 88° |
| 2026-04-12 19:36 | 8.50986 | -80.35973 | 240 ft | 0 kts | 140° |
| 2026-04-12 19:37 | 8.50985 | -80.35972 | 240 ft | 2 kts | 146° |
| 2026-04-12 19:37 | 8.50979 | -80.35974 | 250 ft | 1 kts | 214° |
| 2026-04-12 19:37 | 8.50974 | -80.35978 | 243 ft | 1 kts | 216° |
| 2026-04-12 19:37 | 8.50961 | -80.35988 | 240 ft | 3 kts | 220° |
| 2026-04-12 19:38 | 8.50924 | -80.36019 | 248 ft | 7 kts | 193° |
| 2026-04-12 19:38 | 8.50917 | -80.36019 | 248 ft | 0 kts | 185° |
| 2026-04-12 19:40 | 8.50916 | -80.36019 | 248 ft | 1 kts | 185° |
| 2026-04-12 19:40 | 8.50861 | -80.36023 | 249 ft | 8 kts | 184° |
| 2026-04-12 19:40 | 8.50805 | -80.36026 | 251 ft | 10 kts | 183° |
| 2026-04-12 19:41 | 8.50714 | -80.36032 | 253 ft | 16 kts | 182° |
| 2026-04-12 19:41 | 8.50576 | -80.36040 | 254 ft | 26 kts | 184° |
| 2026-04-12 19:41 | 8.50425 | -80.36049 | 254 ft | 13 kts | 183° |
| 2026-04-12 19:41 | 8.50382 | -80.36051 | 254 ft | 3 kts | 183° |
| 2026-04-12 19:42 | 8.50306 | -80.36055 | 254 ft | 17 kts | 184° |
| 2026-04-12 19:42 | 8.50154 | -80.36062 | 252 ft | 24 kts | 184° |
| 2026-04-12 19:42 | 8.50059 | -80.36069 | 251 ft | 12 kts | 188° |
| 2026-04-12 19:43 | 8.49967 | -80.36073 | 250 ft | 1 kts | 345° |
| 2026-04-12 19:43 | 8.50025 | -80.36068 | 251 ft | 23 kts | 1° |
| 2026-04-12 19:43 | 8.50389 | -80.36049 | 256 ft | 82 kts | 6° |
| 2026-04-12 19:43 | 8.51040 | -80.36028 | 407 ft | 96 kts | 357° |
| 2026-04-12 19:44 | 8.51744 | -80.35998 | 534 ft | 122 kts | 3° |
| 2026-04-12 19:44 | 8.52489 | -80.35961 | 1211 ft | 93 kts | 2° |
| 2026-04-12 19:44 | 8.53089 | -80.35945 | 1881 ft | 82 kts | 0° |
| 2026-04-12 19:44 | 8.53644 | -80.35934 | 2398 ft | 80 kts | 3° |
| 2026-04-12 19:45 | 8.54206 | -80.35939 | 2849 ft | 79 kts | 4° |
| 2026-04-12 19:45 | 8.54740 | -80.35911 | 3287 ft | 78 kts | 22° |
| 2026-04-12 19:45 | 8.55206 | -80.35586 | 3676 ft | 87 kts | 40° |
| 2026-04-12 19:45 | 8.55533 | -80.35028 | 4053 ft | 98 kts | 68° |
| 2026-04-12 19:46 | 8.55547 | -80.34322 | 4500 ft | 107 kts | 94° |
| 2026-04-12 19:46 | 8.55155 | -80.33675 | 4938 ft | 112 kts | 131° |
| 2026-04-12 19:46 | 8.54413 | -80.33349 | 5297 ft | 119 kts | 151° |
| 2026-04-12 19:46 | 8.53589 | -80.33007 | 5505 ft | 146 kts | 154° |
| 2026-04-12 19:47 | 8.52903 | -80.32787 | 5504 ft | 164 kts | 160° |
| 2026-04-12 19:47 | 8.51760 | -80.32451 | 5495 ft | 176 kts | 160° |
| 2026-04-12 19:47 | 8.50568 | -80.32056 | 5500 ft | 183 kts | 156° |
| 2026-04-12 19:47 | 8.49346 | -80.31632 | 5506 ft | 188 kts | 156° |
| 2026-04-12 19:48 | 8.48093 | -80.31221 | 5497 ft | 190 kts | 158° |
| 2026-04-12 19:48 | 8.46830 | -80.30821 | 5497 ft | 191 kts | 156° |
| 2026-04-12 19:48 | 8.45564 | -80.30413 | 5496 ft | 192 kts | 156° |
| 2026-04-12 19:48 | 8.44287 | -80.30004 | 5499 ft | 194 kts | 156° |
| 2026-04-12 19:49 | 8.42994 | -80.29596 | 5486 ft | 195 kts | 158° |
| 2026-04-12 19:49 | 8.41629 | -80.29486 | 5486 ft | 200 kts | 184° |
| 2026-04-12 19:49 | 8.40288 | -80.29870 | 5489 ft | 201 kts | 201° |
| 2026-04-12 19:49 | 8.38982 | -80.30385 | 5485 ft | 201 kts | 200° |
| 2026-04-12 19:50 | 8.37671 | -80.30880 | 5479 ft | 201 kts | 200° |
| 2026-04-12 19:50 | 8.36364 | -80.31382 | 5483 ft | 200 kts | 200° |
| 2026-04-12 19:50 | 8.35057 | -80.31886 | 5476 ft | 202 kts | 200° |
| 2026-04-12 19:50 | 8.33738 | -80.32393 | 5474 ft | 202 kts | 200° |
| 2026-04-12 19:51 | 8.32427 | -80.32896 | 5482 ft | 202 kts | 200° |
| 2026-04-12 19:51 | 8.31104 | -80.33406 | 5481 ft | 205 kts | 200° |
| 2026-04-12 19:51 | 8.29796 | -80.33912 | 5482 ft | 203 kts | 200° |
| 2026-04-12 19:51 | 8.28480 | -80.34415 | 5471 ft | 202 kts | 200° |
| 2026-04-12 19:52 | 8.27165 | -80.34920 | 5478 ft | 201 kts | 200° |
| 2026-04-12 19:52 | 8.25865 | -80.35422 | 5477 ft | 199 kts | 200° |
| 2026-04-12 19:52 | 8.24568 | -80.35918 | 5475 ft | 200 kts | 199° |
| 2026-04-12 19:52 | 8.23224 | -80.36276 | 5473 ft | 199 kts | 187° |
| 2026-04-12 19:53 | 8.21867 | -80.36525 | 5473 ft | 198 kts | 188° |
| 2026-04-12 19:53 | 8.20516 | -80.36793 | 5478 ft | 197 kts | 189° |
| 2026-04-12 19:53 | 8.19167 | -80.37059 | 5477 ft | 198 kts | 188° |
| 2026-04-12 19:53 | 8.17821 | -80.37323 | 5479 ft | 196 kts | 189° |
| 2026-04-12 19:54 | 8.16476 | -80.37584 | 5479 ft | 198 kts | 188° |
| 2026-04-12 19:54 | 8.15126 | -80.37848 | 5475 ft | 197 kts | 189° |
| 2026-04-12 19:54 | 8.13804 | -80.38109 | 5477 ft | 196 kts | 189° |
| 2026-04-12 19:54 | 8.12446 | -80.38374 | 5478 ft | 197 kts | 188° |
| 2026-04-12 19:55 | 8.11100 | -80.38636 | 5471 ft | 197 kts | 188° |
| 2026-04-12 19:55 | 8.09751 | -80.38901 | 5478 ft | 197 kts | 189° |
| 2026-04-12 19:55 | 8.08415 | -80.39162 | 5474 ft | 199 kts | 189° |
| 2026-04-12 19:55 | 8.07051 | -80.39428 | 5475 ft | 200 kts | 189° |
| 2026-04-12 19:56 | 8.05692 | -80.39696 | 5478 ft | 199 kts | 189° |
| 2026-04-12 19:56 | 8.04334 | -80.39961 | 5475 ft | 199 kts | 189° |
| 2026-04-12 19:56 | 8.02970 | -80.40227 | 5472 ft | 199 kts | 189° |
| 2026-04-12 19:56 | 8.01610 | -80.40493 | 5481 ft | 198 kts | 189° |
| 2026-04-12 19:57 | 8.00258 | -80.40757 | 5481 ft | 198 kts | 190° |
| 2026-04-12 19:57 | 7.98892 | -80.40925 | 5472 ft | 197 kts | 172° |
| 2026-04-12 19:57 | 7.97569 | -80.40580 | 5305 ft | 199 kts | 149° |
| 2026-04-12 19:57 | 7.96427 | -80.39782 | 5052 ft | 203 kts | 136° |
| 2026-04-12 19:58 | 7.95313 | -80.38877 | 4773 ft | 208 kts | 137° |
| 2026-04-12 19:58 | 7.94160 | -80.37975 | 4498 ft | 211 kts | 137° |
| 2026-04-12 19:58 | 7.93014 | -80.37063 | 4210 ft | 205 kts | 137° |
| 2026-04-12 19:58 | 7.91919 | -80.36189 | 3948 ft | 197 kts | 137° |
| 2026-04-12 19:59 | 7.90867 | -80.35345 | 3691 ft | 194 kts | 136° |
| 2026-04-12 19:59 | 7.89800 | -80.34491 | 3429 ft | 194 kts | 137° |
| 2026-04-12 19:59 | 7.88749 | -80.33661 | 3174 ft | 194 kts | 136° |
| 2026-04-12 19:59 | 7.87698 | -80.32811 | 2922 ft | 194 kts | 137° |
| 2026-04-12 20:00 | 7.86636 | -80.31968 | 2663 ft | 195 kts | 138° |
| 2026-04-12 20:00 | 7.85567 | -80.31117 | 2409 ft | 196 kts | 137° |
| 2026-04-12 20:00 | 7.84487 | -80.30258 | 2143 ft | 199 kts | 135° |
| 2026-04-12 20:00 | 7.83399 | -80.29391 | 1877 ft | 200 kts | 135° |
| 2026-04-12 20:01 | 7.82306 | -80.28521 | 1622 ft | 198 kts | 137° |
| 2026-04-12 20:01 | 7.81233 | -80.27670 | 1348 ft | 196 kts | 139° |
| 2026-04-12 20:01 | 7.80363 | -80.26689 | 1083 ft | 182 kts | 104° |
| 2026-04-12 20:01 | 7.80474 | -80.25528 | 883 ft | 163 kts | 49° |
| 2026-04-12 20:02 | 7.81404 | -80.25118 | 862 ft | 150 kts | 354° |
| 2026-04-12 20:02 | 7.82238 | -80.25706 | 741 ft | 146 kts | 313° |
| 2026-04-12 20:02 | 7.82891 | -80.26426 | 585 ft | 130 kts | 323° |
| 2026-04-12 20:02 | 7.83566 | -80.26794 | 436 ft | 85 kts | 341° |
| 2026-04-12 20:03 | 7.84082 | -80.26999 | 340 ft | 79 kts | 339° |
| 2026-04-12 20:03 | 7.84615 | -80.27205 | 229 ft | 85 kts | 346° |
| 2026-04-12 20:03 | 7.85152 | -80.27413 | 93 ft | 80 kts | 343° |
| 2026-04-12 20:03 | 7.85621 | -80.27572 | 23 ft | 60 kts | 344° |
| 2026-04-12 20:04 | 7.85937 | -80.27681 | 55 ft | 25 kts | 339° |
| 2026-04-12 20:04 | 7.86073 | -80.27732 | 58 ft | 23 kts | 340° |
| 2026-04-12 20:04 | 7.86145 | -80.27757 | 58 ft | 1 kts | 96° |
| 2026-04-12 20:04 | 7.86115 | -80.27747 | 58 ft | 12 kts | 159° |
| 2026-04-12 20:05 | 7.86005 | -80.27717 | 56 ft | 20 kts | 156° |
| 2026-04-12 20:05 | 7.85853 | -80.27653 | 57 ft | 26 kts | 157° |
| 2026-04-12 20:05 | 7.85679 | -80.27592 | 59 ft | 28 kts | 162° |
| 2026-04-12 20:05 | 7.85554 | -80.27547 | 22 ft | 10 kts | 164° |
| 2026-04-12 20:06 | 7.85501 | -80.27528 | 23 ft | 11 kts | 161° |
| 2026-04-12 20:06 | 7.85400 | -80.27497 | 24 ft | 19 kts | 161° |
| 2026-04-12 20:06 | 7.85326 | -80.27506 | 24 ft | 2 kts | 304° |
| 2026-04-12 20:06 | 7.85337 | -80.27515 | 19 ft | 2 kts | 333° |
| 2026-04-12 20:07 | 7.85342 | -80.27518 | 21 ft | 0 kts | 338° |